Time;durP1;ratioP1;P1;durP2;ratioP2;P2;SDS_P1;SDS_P2;PMS_P1;PMS_P2;Temp;Humidity;BMP_temperature;BMP_pressure;BME280_temperature;BME280_humidity;BME280_pressure;Samples;Min_cycle;Max_cycle;Signal;HPM_P1;HPM_P2
2023/09/10 00:02:07;;;;;;;9.97;8.83;;;;;;;20.56;100.00;98252.78;5075738;28;20211;-76
2023/09/10 00:04:33;;;;;;;11.00;9.20;;;;;;;20.50;100.00;98249.31;5075625;28;20204;-76
2023/09/10 00:07:00;;;;;;;10.67;9.23;;;;;;;20.42;100.00;98251.75;5075272;28;20205;-76
2023/09/10 00:09:26;;;;;;;11.27;8.87;;;;;;;20.41;100.00;98255.56;5074732;28;20197;-76
2023/09/10 00:11:55;;;;;;;11.20;8.67;;;;;;;20.43;100.00;98256.09;5075037;28;20220;-75
2023/09/10 00:14:21;;;;;;;12.00;8.70;;;;;;;20.42;100.00;98255.28;5075293;28;20208;-75
2023/09/10 00:16:48;;;;;;;11.60;8.53;;;;;;;20.37;100.00;98258.00;5075227;28;20201;-75
2023/09/10 00:19:15;;;;;;;12.93;8.93;;;;;;;20.43;100.00;98256.88;5075074;28;20228;-75
2023/09/10 00:21:41;;;;;;;13.97;9.27;;;;;;;20.40;100.00;98248.53;5075192;28;20208;-75
2023/09/10 00:24:08;;;;;;;10.93;9.23;;;;;;;20.39;100.00;98253.13;5074955;28;20228;-75
2023/09/10 00:26:35;;;;;;;11.50;9.40;;;;;;;20.40;100.00;98262.03;5074734;28;20268;-75
2023/09/10 00:29:02;;;;;;;11.17;8.87;;;;;;;20.41;100.00;98250.16;5075006;28;20228;-75
2023/09/10 00:31:28;;;;;;;12.60;9.50;;;;;;;20.38;100.00;98250.69;5075032;28;20289;-75
2023/09/10 00:33:55;;;;;;;12.23;9.70;;;;;;;20.38;100.00;98253.41;5074881;28;20215;-75
2023/09/10 00:36:21;;;;;;;10.50;9.40;;;;;;;20.39;100.00;98255.03;5074761;28;20209;-75
2023/09/10 00:38:47;;;;;;;10.70;9.67;;;;;;;20.37;100.00;98249.91;5074801;28;20235;-75
2023/09/10 00:41:13;;;;;;;11.03;9.67;;;;;;;20.34;100.00;98245.03;5074710;28;20223;-75
2023/09/10 00:43:40;;;;;;;14.27;10.13;;;;;;;20.33;100.00;98243.44;5074773;28;20204;-75
2023/09/10 00:46:07;;;;;;;12.07;10.23;;;;;;;20.30;100.00;98243.97;5074322;28;20209;-75
2023/09/10 00:48:33;;;;;;;14.50;10.13;;;;;;;20.22;100.00;98232.97;5074168;28;20307;-75
2023/09/10 00:51:00;;;;;;;12.90;9.90;;;;;;;20.24;100.00;98233.47;5074532;28;20207;-75
2023/09/10 00:53:27;;;;;;;12.87;11.10;;;;;;;20.28;100.00;98246.16;5074429;28;20200;-75
2023/09/10 00:55:53;;;;;;;13.37;11.60;;;;;;;20.23;100.00;98240.78;5074357;28;20208;-75
2023/09/10 00:58:20;;;;;;;17.30;12.23;;;;;;;20.25;100.00;98241.31;5074222;28;20228;-75
2023/09/10 01:00:47;;;;;;;14.57;12.07;;;;;;;20.27;100.00;98244.56;5056635;28;20210;-75
2023/09/10 01:03:16;;;;;;;14.33;12.27;;;;;;;20.24;100.00;98241.56;5074322;28;20204;-75
2023/09/10 01:05:42;;;;;;;14.93;12.07;;;;;;;20.19;100.00;98245.13;5074144;28;20216;-75
2023/09/10 01:08:08;;;;;;;15.07;13.10;;;;;;;20.26;100.00;98240.22;5074179;28;20228;-75
2023/09/10 01:11:09;;;;;;;13.67;12.20;;;;;;;20.20;100.00;98240.50;5073933;28;20219;-75
2023/09/10 01:14:00;;;;;;;14.97;12.43;;;;;;;20.28;100.00;98242.63;5074209;28;20193;-75
2023/09/10 01:16:36;;;;;;;14.90;11.50;;;;;;;20.27;100.00;98238.34;5056496;28;20191;-75
2023/09/10 01:19:25;;;;;;;13.00;11.70;;;;;;;20.29;100.00;98236.16;5073992;28;20318;-75
2023/09/10 01:22:15;;;;;;;13.87;10.10;;;;;;;20.22;100.00;98230.25;5056324;28;20185;-75
2023/09/10 01:24:41;;;;;;;13.70;11.27;;;;;;;20.04;100.00;98233.53;5063025;28;20227;-75
2023/09/10 01:27:07;;;;;;;16.07;10.90;;;;;;;20.06;100.00;98236.75;5073925;28;20207;-75
2023/09/10 01:29:34;;;;;;;10.73;9.67;;;;;;;19.93;100.00;98242.75;5073892;28;20200;-75
2023/09/10 01:32:03;;;;;;;12.60;9.97;;;;;;;19.90;100.00;98245.97;5073547;28;20209;-75
2023/09/10 01:34:35;;;;;;;11.90;10.80;;;;;;;19.95;100.00;98245.97;5073761;28;20204;-75
2023/09/10 01:37:27;;;;;;;11.00;9.90;;;;;;;19.89;100.00;98236.28;5073553;28;20224;-75
2023/09/10 01:39:57;;;;;;;12.23;9.87;;;;;;;19.86;100.00;98234.13;5073699;28;20228;-75
2023/09/10 01:42:24;;;;;;;12.40;9.60;;;;;;;19.81;100.00;98232.22;5073873;28;20189;-75
2023/09/10 01:44:52;;;;;;;10.23;9.20;;;;;;;19.92;100.00;98241.94;5073177;28;20220;-75
2023/09/10 01:47:19;;;;;;;13.27;11.00;;;;;;;19.96;100.00;98244.88;5073638;28;20274;-75
2023/09/10 01:49:45;;;;;;;11.93;10.13;;;;;;;20.00;100.00;98243.25;5073727;28;20196;-75
2023/09/10 01:52:12;;;;;;;13.27;9.47;;;;;;;19.90;100.00;98248.69;5073665;28;20287;-75
2023/09/10 01:54:38;;;;;;;13.97;10.40;;;;;;;19.82;100.00;98246.53;5073739;28;20209;-75
2023/09/10 01:57:05;;;;;;;16.70;11.40;;;;;;;19.82;100.00;98241.13;5073147;28;20570;-75
2023/09/10 01:59:32;;;;;;;13.13;11.17;;;;;;;19.72;100.00;98239.28;5073499;28;20231;-75
2023/09/10 02:01:58;;;;;;;15.40;11.33;;;;;;;19.76;100.00;98228.75;5073685;28;20243;-75
2023/09/10 02:04:25;;;;;;;13.50;10.43;;;;;;;19.73;100.00;98232.81;5073556;28;20208;-75
2023/09/10 02:06:51;;;;;;;12.23;11.00;;;;;;;19.73;100.00;98236.28;5073236;28;20659;-75
2023/09/10 02:09:17;;;;;;;14.47;11.40;;;;;;;19.78;100.00;98230.09;5073062;28;20659;-75
2023/09/10 02:11:44;;;;;;;13.70;11.67;;;;;;;19.80;100.00;98227.13;5073121;28;20223;-75
2023/09/10 02:14:10;;;;;;;12.40;11.10;;;;;;;19.72;100.00;98233.06;5073504;28;20208;-75
2023/09/10 02:16:36;;;;;;;14.33;11.67;;;;;;;19.77;100.00;98227.66;5073318;28;20208;-75
2023/09/10 02:19:03;;;;;;;15.07;11.73;;;;;;;19.75;100.00;98230.63;5074126;28;20238;-75
2023/09/10 02:21:30;;;;;;;12.53;11.23;;;;;;;19.68;100.00;98230.91;5077846;28;20219;-75
2023/09/10 02:23:56;;;;;;;15.57;12.20;;;;;;;19.64;100.00;98232.53;5077277;28;20212;-75
2023/09/10 02:26:22;;;;;;;15.27;12.30;;;;;;;19.67;100.00;98227.69;5077425;28;20219;-75
2023/09/10 02:28:49;;;;;;;14.87;11.67;;;;;;;19.60;100.00;98227.97;5077219;28;20224;-75
2023/09/10 02:31:15;;;;;;;13.47;12.10;;;;;;;19.55;100.00;98226.06;5077299;28;20204;-75
2023/09/10 02:33:41;;;;;;;14.57;12.07;;;;;;;19.58;100.00;98230.94;5076958;28;20209;-75
2023/09/10 02:36:08;;;;;;;13.40;11.90;;;;;;;19.63;100.00;98224.75;5076914;28;20671;-75
2023/09/10 02:38:34;;;;;;;13.33;11.93;;;;;;;19.59;100.00;98227.16;5076600;28;20701;-75
2023/09/10 02:41:01;;;;;;;14.10;12.60;;;;;;;19.54;100.00;98219.06;5077573;28;20208;-75
2023/09/10 02:43:27;;;;;;;13.97;12.50;;;;;;;19.49;100.00;98229.03;5076995;28;20209;-75
2023/09/10 02:45:53;;;;;;;13.83;12.10;;;;;;;19.42;100.00;98223.13;5076936;28;20207;-75
2023/09/10 02:48:20;;;;;;;17.03;12.40;;;;;;;19.37;100.00;98226.63;5076761;28;20227;-75
2023/09/10 02:50:46;;;;;;;13.60;12.20;;;;;;;19.42;100.00;98221.22;5077031;28;20208;-75
2023/09/10 02:53:13;;;;;;;14.80;13.03;;;;;;;19.41;100.00;98225.00;5076610;28;20671;-75
2023/09/10 02:55:39;;;;;;;14.33;12.93;;;;;;;19.46;100.00;98222.31;5076693;28;20209;-75
2023/09/10 02:58:06;;;;;;;14.87;13.13;;;;;;;19.40;100.00;98222.59;5076730;28;20228;-75
2023/09/10 03:00:32;;;;;;;14.73;13.30;;;;;;;19.39;100.00;98227.19;5076395;28;20226;-75
2023/09/10 03:02:59;;;;;;;15.13;13.47;;;;;;;19.42;100.00;98218.53;5076275;28;20675;-75
2023/09/10 03:05:25;;;;;;;14.77;12.63;;;;;;;19.50;100.00;98226.06;5076178;28;20209;-75
2023/09/10 03:07:52;;;;;;;14.70;13.20;;;;;;;19.45;100.00;98226.09;5076193;28;20228;-75
2023/09/10 03:10:18;;;;;;;16.13;12.33;;;;;;;19.35;100.00;98222.59;5076354;28;20295;-75
2023/09/10 03:12:45;;;;;;;15.77;12.60;;;;;;;19.30;100.00;98222.59;5076395;28;20211;-75
2023/09/10 03:15:11;;;;;;;13.47;12.17;;;;;;;19.20;100.00;98225.25;5076362;28;20204;-75
2023/09/10 03:17:38;;;;;;;13.00;11.27;;;;;;;19.14;100.00;98235.22;5076248;28;20233;-75
2023/09/10 03:20:05;;;;;;;14.37;12.87;;;;;;;19.07;100.00;98236.56;5076246;28;20232;-75
2023/09/10 03:22:32;;;;;;;15.30;12.57;;;;;;;19.09;100.00;98232.53;5076353;28;20205;-75
2023/09/10 03:24:58;;;;;;;14.53;12.47;;;;;;;19.11;100.00;98230.41;5076258;28;20205;-75
2023/09/10 03:27:25;;;;;;;15.27;11.80;;;;;;;19.15;100.00;98233.34;5075981;28;20779;-75
2023/09/10 03:29:51;;;;;;;12.40;11.20;;;;;;;19.18;100.00;98233.63;5075175;28;20659;-75
2023/09/10 03:32:17;;;;;;;14.40;12.03;;;;;;;19.14;100.00;98231.75;5075108;28;20208;-75
2023/09/10 03:34:44;;;;;;;13.20;11.37;;;;;;;19.09;100.00;98229.84;5075790;28;20257;-75
2023/09/10 03:37:10;;;;;;;14.63;12.10;;;;;;;19.07;100.00;98231.19;5075418;28;20231;-75
2023/09/10 03:39:37;;;;;;;15.63;12.33;;;;;;;19.11;100.00;98229.56;5075376;28;20698;-75
2023/09/10 03:42:03;;;;;;;12.93;11.67;;;;;;;19.08;100.00;98228.22;5075483;28;20670;-75
2023/09/10 03:44:30;;;;;;;13.07;11.77;;;;;;;19.08;100.00;98228.22;5075582;28;20574;-75
2023/09/10 03:46:56;;;;;;;13.83;10.93;;;;;;;18.98;100.00;98228.22;5075665;28;20209;-75
2023/09/10 03:49:22;;;;;;;13.93;11.40;;;;;;;18.95;100.00;98230.66;5075692;28;20228;-75
2023/09/10 03:51:49;;;;;;;13.07;11.77;;;;;;;18.81;100.00;98227.66;5075782;28;20296;-75
2023/09/10 03:54:15;;;;;;;14.13;12.07;;;;;;;18.89;100.00;98229.00;5075757;28;20204;-75
2023/09/10 03:56:43;;;;;;;12.13;10.93;;;;;;;18.94;100.00;98237.09;5075802;28;20204;-75
2023/09/10 03:59:10;;;;;;;13.07;11.87;;;;;;;18.89;100.00;98235.22;5075175;28;20235;-75
2023/09/10 04:01:36;;;;;;;15.30;11.77;;;;;;;18.76;100.00;98243.00;5075736;28;20604;-75
2023/09/10 04:04:04;;;;;;;14.30;12.50;;;;;;;18.85;100.00;98230.63;5085803;28;20195;-75
2023/09/10 04:06:31;;;;;;;13.97;12.40;;;;;;;18.88;100.00;98239.00;5086174;28;20200;-75
2023/09/10 04:08:57;;;;;;;13.20;11.90;;;;;;;18.85;100.00;98234.13;5083997;28;20714;-75
2023/09/10 04:11:23;;;;;;;13.20;11.80;;;;;;;18.80;100.00;98230.63;5086285;28;20215;-75
2023/09/10 04:13:50;;;;;;;13.57;12.23;;;;;;;18.81;100.00;98235.75;5076445;28;20205;-75
2023/09/10 04:16:16;;;;;;;14.03;11.30;;;;;;;18.78;100.00;98230.88;5075209;28;20278;-75
2023/09/10 04:18:42;;;;;;;14.10;12.60;;;;;;;18.79;100.00;98237.09;5074890;28;20228;-75
2023/09/10 04:21:09;;;;;;;14.60;11.90;;;;;;;18.83;100.00;98240.88;5075051;28;20200;-75
2023/09/10 04:23:36;;;;;;;14.23;12.57;;;;;;;18.86;100.00;98233.06;5075048;28;20295;-75
2023/09/10 04:26:02;;;;;;;13.13;11.80;;;;;;;18.85;100.00;98238.69;5075119;28;20204;-75
2023/09/10 04:28:29;;;;;;;14.43;12.40;;;;;;;18.82;100.00;98241.94;5074650;28;20224;-75
2023/09/10 04:30:55;;;;;;;13.73;12.23;;;;;;;18.76;100.00;98243.00;5074950;28;20197;-75
2023/09/10 04:33:21;;;;;;;13.93;12.50;;;;;;;18.81;100.00;98248.38;5074903;28;20207;-75
2023/09/10 04:35:50;;;;;;;15.67;12.40;;;;;;;18.79;100.00;98243.28;5074761;28;20215;-75
2023/09/10 04:38:16;;;;;;;13.90;12.60;;;;;;;18.74;100.00;98237.06;5074218;28;20595;-75
2023/09/10 04:40:42;;;;;;;14.43;12.13;;;;;;;18.72;100.00;98245.41;5074281;28;20707;-75
2023/09/10 04:43:09;;;;;;;14.73;11.93;;;;;;;18.75;100.00;98249.47;5074302;28;20204;-75
2023/09/10 04:45:36;;;;;;;15.90;12.10;;;;;;;18.74;100.00;98240.56;5074287;28;20208;-75
2023/09/10 04:48:02;;;;;;;14.17;12.50;;;;;;;18.72;100.00;98253.50;5074474;28;20232;-75
2023/09/10 04:50:29;;;;;;;16.27;12.20;;;;;;;18.75;100.00;98250.28;5074548;28;20196;-75
2023/09/10 04:52:55;;;;;;;13.97;12.67;;;;;;;18.74;100.00;98254.03;5074525;28;20213;-75
2023/09/10 04:55:21;;;;;;;14.43;13.07;;;;;;;18.76;100.00;98257.28;5074560;28;20215;-75
2023/09/10 04:57:48;;;;;;;14.50;13.10;;;;;;;18.76;100.00;98253.78;5074325;28;20229;-75
2023/09/10 05:00:15;;;;;;;14.67;12.97;;;;;;;18.67;100.00;98256.19;5075053;28;20268;-75
2023/09/10 05:02:41;;;;;;;13.93;12.20;;;;;;;18.63;100.00;98260.47;5074388;28;20213;-75
2023/09/10 05:05:08;;;;;;;14.60;13.10;;;;;;;18.70;100.00;98262.91;5074383;28;20560;-75
2023/09/10 05:07:34;;;;;;;14.40;12.90;;;;;;;18.67;100.00;98268.81;5074069;28;20229;-75
2023/09/10 05:10:01;;;;;;;14.40;12.90;;;;;;;18.74;100.00;98267.50;5073602;28;20698;-75
2023/09/10 05:12:27;;;;;;;14.67;13.10;;;;;;;18.67;100.00;98266.13;5073852;28;20662;-75
2023/09/10 05:14:53;;;;;;;14.10;12.70;;;;;;;18.72;100.00;98266.97;5073591;28;20215;-75
2023/09/10 05:17:20;;;;;;;13.70;12.30;;;;;;;18.74;100.00;98267.50;5072314;28;20243;-75
2023/09/10 05:19:47;;;;;;;13.43;12.20;;;;;;;18.76;100.00;98272.63;5072317;28;20578;-75
2023/09/10 05:22:14;;;;;;;14.27;12.67;;;;;;;18.77;100.00;98274.25;5072395;28;20209;-75
2023/09/10 05:24:40;;;;;;;14.03;12.50;;;;;;;18.78;100.00;98279.34;5072269;28;20532;-75
2023/09/10 05:27:06;;;;;;;14.47;12.63;;;;;;;18.80;100.00;98269.16;5072237;28;20212;-75
2023/09/10 05:29:33;;;;;;;14.30;12.80;;;;;;;18.87;100.00;98276.97;5073252;28;20227;-75
2023/09/10 05:31:59;;;;;;;13.47;12.13;;;;;;;18.95;100.00;98279.16;5093865;28;20204;-75
2023/09/10 05:34:26;;;;;;;15.90;12.63;;;;;;;18.96;100.00;98275.38;5093625;28;20204;-75
2023/09/10 05:36:52;;;;;;;14.00;12.33;;;;;;;18.97;100.00;98275.13;5093539;28;20219;-75
2023/09/10 05:39:19;;;;;;;14.20;12.67;;;;;;;19.10;100.00;98276.47;5093947;28;20552;-75
2023/09/10 05:41:45;;;;;;;15.23;12.17;;;;;;;19.10;100.00;98273.78;5093907;28;20203;-75
2023/09/10 05:44:11;;;;;;;14.17;12.77;;;;;;;19.16;100.00;98275.41;5093900;28;20203;-75
2023/09/10 05:46:38;;;;;;;18.20;13.33;;;;;;;19.17;100.00;98275.13;5093871;28;20204;-75
2023/09/10 05:49:04;;;;;;;15.20;12.47;;;;;;;19.23;100.00;98270.59;5093792;28;20235;-75
2023/09/10 05:51:31;;;;;;;14.10;12.70;;;;;;;19.27;100.00;98277.84;5093437;28;20285;-75
2023/09/10 05:53:57;;;;;;;13.87;12.57;;;;;;;19.23;100.00;98276.78;5084951;28;20223;-77
2023/09/10 05:56:26;;;;;;;14.27;12.73;;;;;;;19.28;100.00;98270.59;5085160;28;20206;-76
2023/09/10 05:58:52;;;;;;;14.93;13.43;;;;;;;19.37;100.00;98277.06;5074957;28;20278;-77
2023/09/10 06:01:19;;;;;;;15.70;13.33;;;;;;;19.39;100.00;98275.72;5090470;28;20223;-77
2023/09/10 06:03:45;;;;;;;15.07;13.57;;;;;;;19.38;100.00;98279.50;5090174;28;20564;-77
2023/09/10 06:06:11;;;;;;;16.03;12.00;;;;;;;19.43;100.00;98287.59;5084217;28;20196;-77
2023/09/10 06:08:38;;;;;;;14.30;12.90;;;;;;;19.48;100.00;98289.47;5093436;28;20231;-77
2023/09/10 06:11:04;;;;;;;14.93;13.40;;;;;;;19.63;100.00;98296.75;5093250;28;20207;-77
2023/09/10 06:13:31;;;;;;;15.80;12.53;;;;;;;19.60;100.00;98287.31;5093671;28;20203;-77
2023/09/10 06:16:01;;;;;;;15.40;12.20;;;;;;;19.62;100.00;98293.22;5089778;28;20266;-77
2023/09/10 06:18:27;;;;;;;13.30;11.73;;;;;;;19.73;100.00;98286.75;5077080;28;20219;-77
2023/09/10 06:20:54;;;;;;;13.80;12.50;;;;;;;19.73;100.00;98286.75;5089302;28;20216;-77
2023/09/10 06:23:20;;;;;;;13.93;12.53;;;;;;;19.77;100.00;98294.03;5090609;28;20210;-77
2023/09/10 06:25:47;;;;;;;14.50;12.63;;;;;;;19.80;100.00;98298.06;5073198;28;20207;-77
2023/09/10 06:28:13;;;;;;;14.20;12.03;;;;;;;20.03;100.00;98292.09;5073277;28;20224;-77
2023/09/10 06:30:40;;;;;;;14.07;12.57;;;;;;;19.93;100.00;98286.72;5073267;28;20201;-77
2023/09/10 06:33:06;;;;;;;14.43;12.80;;;;;;;20.02;100.00;98303.97;5076116;28;20662;-77
2023/09/10 06:35:34;;;;;;;13.47;12.27;;;;;;;20.16;100.00;98296.94;5093637;28;20206;-77
2023/09/10 06:38:00;;;;;;;14.73;13.20;;;;;;;20.09;100.00;98299.16;5093348;28;20586;-77
2023/09/10 06:40:27;;;;;;;13.03;11.90;;;;;;;20.20;100.00;98297.19;5093233;28;20220;-75
2023/09/10 06:42:53;;;;;;;13.23;11.67;;;;;;;20.29;100.00;98300.94;5093119;28;20208;-78
2023/09/10 06:45:19;;;;;;;14.50;11.10;;;;;;;20.23;100.00;98293.97;5085734;28;20586;-76
2023/09/10 06:47:45;;;;;;;12.87;11.40;;;;;;;20.48;100.00;98302.78;5093267;28;20228;-77
2023/09/10 06:50:12;;;;;;;14.50;10.87;;;;;;;20.35;100.00;98307.97;5093318;28;20208;-76
2023/09/10 06:52:38;;;;;;;12.27;11.13;;;;;;;20.44;100.00;98307.13;5093207;28;20207;-77
2023/09/10 06:55:05;;;;;;;12.10;10.87;;;;;;;20.39;100.00;98311.75;5093267;28;20204;-76
2023/09/10 06:57:32;;;;;;;12.67;10.20;;;;;;;20.48;100.00;98310.09;5093378;28;20224;-76
2023/09/10 06:59:58;;;;;;;14.90;10.83;;;;;;;20.56;100.00;98312.19;5093152;28;20249;-76
2023/09/10 07:02:26;;;;;;;13.23;11.73;;;;;;;20.55;100.00;98316.00;5093083;28;20215;-76
2023/09/10 07:04:52;;;;;;;15.93;10.57;;;;;;;20.61;100.00;98314.91;5093641;28;20688;-76
2023/09/10 07:07:18;;;;;;;12.23;10.50;;;;;;;20.79;100.00;98317.78;5097599;28;20224;-76
2023/09/10 07:09:45;;;;;;;13.07;10.63;;;;;;;20.74;100.00;98319.69;5096643;28;20199;-76
2023/09/10 07:12:11;;;;;;;15.27;10.77;;;;;;;20.84;100.00;98319.66;5093022;28;20271;-76
2023/09/10 07:14:37;;;;;;;12.30;11.03;;;;;;;21.01;100.00;98325.53;5076506;28;20201;-75
2023/09/10 07:17:05;;;;;;;12.27;10.87;;;;;;;20.92;100.00;98317.22;5076570;28;20672;-76
2023/09/10 07:19:32;;;;;;;11.67;10.47;;;;;;;21.09;100.00;98319.53;5075958;28;20671;-78
2023/09/10 07:21:58;;;;;;;12.17;10.97;;;;;;;21.23;100.00;98325.94;5076545;28;20208;-76
2023/09/10 07:24:25;;;;;;;12.83;10.33;;;;;;;21.16;100.00;98318.13;5076119;28;20208;-76
2023/09/10 07:26:51;;;;;;;12.43;10.47;;;;;;;21.21;100.00;98325.44;5075974;28;20524;-76
2023/09/10 07:29:17;;;;;;;11.77;10.57;;;;;;;21.44;100.00;98330.13;5075383;28;20659;-76
2023/09/10 07:31:43;;;;;;;12.07;10.63;;;;;;;21.46;100.00;98323.34;5080036;28;20553;-76
2023/09/10 07:34:10;;;;;;;12.37;10.40;;;;;;;21.57;100.00;98326.78;5090842;28;20200;-76
2023/09/10 07:36:38;;;;;;;15.73;10.97;;;;;;;21.50;100.00;98326.28;5084210;28;20663;-76
2023/09/10 07:39:04;;;;;;;14.47;10.70;;;;;;;21.44;100.00;98328.22;5075662;28;20601;-76
2023/09/10 07:41:32;;;;;;;14.77;11.07;;;;;;;21.53;100.00;98323.03;5075692;28;20231;-76
2023/09/10 07:43:58;;;;;;;11.70;10.50;;;;;;;21.62;100.00;98334.88;5075798;28;20211;-76
2023/09/10 07:46:24;;;;;;;15.17;10.07;;;;;;;21.67;100.00;98329.41;5075724;28;20215;-76
2023/09/10 07:48:51;;;;;;;11.37;10.27;;;;;;;21.58;100.00;98328.41;5078487;28;20242;-76
2023/09/10 07:51:17;;;;;;;12.90;10.20;;;;;;;21.68;100.00;98341.84;5088188;28;20196;-76
2023/09/10 07:53:44;;;;;;;12.60;10.73;;;;;;;21.74;100.00;98333.44;5087691;28;20203;-76
2023/09/10 07:56:10;;;;;;;10.43;9.25;;;;;;;21.97;100.00;98334.59;5086425;28;20219;-78
2023/09/10 07:58:36;;;;;;;14.00;10.05;;;;;;;21.93;100.00;98336.25;5086093;28;20215;-78
2023/09/10 08:01:03;;;;;;;11.10;10.00;;;;;;;21.96;100.00;98341.09;5090074;28;20238;-78
2023/09/10 08:03:29;;;;;;;11.52;9.85;;;;;;;22.20;100.00;98333.81;5087738;28;20737;-78
2023/09/10 08:05:56;;;;;;;11.57;10.00;;;;;;;22.31;100.00;98340.75;5087914;28;20208;-76
2023/09/10 08:08:22;;;;;;;14.88;9.95;;;;;;;22.25;100.00;98342.69;5087864;28;20256;-76
2023/09/10 08:10:49;;;;;;;11.80;9.73;;;;;;;22.26;100.00;98333.50;5084572;28;20287;-76
2023/09/10 08:13:15;;;;;;;12.13;9.35;;;;;;;22.27;100.00;98342.41;5085405;28;20200;-76
2023/09/10 08:15:42;;;;;;;13.70;9.27;;;;;;;22.39;100.00;98343.63;5084125;28;20207;-76
2023/09/10 08:18:11;;;;;;;70.38;35.13;;;;;;;22.45;100.00;98347.09;5081631;28;20753;-76
2023/09/10 08:20:39;;;;;;;128.63;57.05;;;;;;;22.63;100.00;98349.91;5084133;28;20216;-76
2023/09/10 08:23:06;;;;;;;11.07;9.73;;;;;;;22.74;100.00;98345.97;5087336;28;20196;-76
2023/09/10 08:25:33;;;;;;;10.98;9.88;;;;;;;22.92;100.00;98344.41;5075291;28;20204;-76
2023/09/10 08:28:00;;;;;;;13.13;9.57;;;;;;;23.07;100.00;98342.25;5084659;28;20583;-76
2023/09/10 08:30:27;;;;;;;11.13;9.55;;;;;;;23.18;100.00;98340.22;5078907;28;20219;-77
2023/09/10 08:32:53;;;;;;;9.15;8.25;;;;;;;23.32;100.00;98344.66;5082789;28;20203;-76
2023/09/10 08:35:21;;;;;;;9.80;8.82;;;;;;;23.59;100.00;98341.25;5082486;28;20204;-76
2023/09/10 08:37:47;;;;;;;11.38;8.90;;;;;;;23.57;100.00;98346.19;5094950;28;20226;-77
2023/09/10 08:40:15;;;;;;;20.92;14.45;;;;;;;23.31;100.00;98345.78;5094015;28;20220;-77
2023/09/10 08:42:49;;;;;;;10.68;8.77;;;;;;;23.36;100.00;98344.88;5086691;28;20200;-76
2023/09/10 08:45:15;;;;;;;9.27;8.38;;;;;;;23.59;100.00;98342.09;5075270;28;20272;-76
2023/09/10 08:47:43;;;;;;;12.77;9.45;;;;;;;23.75;100.00;98346.16;5084224;28;20211;-77
2023/09/10 08:50:14;;;;;;;10.80;9.02;;;;;;;23.91;100.00;98344.84;5087595;28;20540;-77
2023/09/10 08:52:45;;;;;;;9.23;8.13;;;;;;;23.91;100.00;98341.31;5083210;28;20570;-77
2023/09/10 08:55:13;;;;;;;10.10;8.40;;;;;;;23.99;100.00;98348.78;5083710;28;20196;-76
2023/09/10 08:57:43;;;;;;;10.93;8.43;;;;;;;24.05;100.00;98345.69;5081347;28;20290;-76
2023/09/10 09:00:12;;;;;;;10.20;8.80;;;;;;;24.31;100.00;98343.31;5079802;28;20603;-77
2023/09/10 09:02:43;;;;;;;12.30;9.23;;;;;;;24.51;100.00;98337.50;5076959;28;20222;-77
2023/09/10 09:05:10;;;;;;;9.25;8.35;;;;;;;24.29;100.00;98340.09;5081300;28;20566;-77
2023/09/10 09:07:52;;;;;;;9.40;8.48;;;;;;;24.64;100.00;98345.69;5075744;28;20311;-77
2023/09/10 09:10:22;;;;;;;9.88;7.18;;;;;;;24.43;100.00;98341.69;5094846;28;20218;-77
2023/09/10 09:12:52;;;;;;;9.55;8.55;;;;;;;24.64;100.00;98336.69;5094697;28;20204;-77
2023/09/10 09:15:20;;;;;;;9.82;8.73;;;;;;;24.80;100.00;98343.47;5094979;28;20190;-77
2023/09/10 09:17:47;;;;;;;8.70;7.85;;;;;;;24.91;100.00;98337.50;5089613;28;20232;-77
2023/09/10 09:20:17;;;;;;;10.68;7.72;;;;;;;25.14;100.00;98346.56;5079087;28;20206;-77
2023/09/10 09:22:48;;;;;;;7.65;6.43;;;;;;;24.74;83.55;98348.19;5095093;28;20582;-77
2023/09/10 09:25:16;;;;;;;9.75;7.00;;;;;;;24.87;89.56;98338.44;5091114;28;20193;-77
2023/09/10 09:27:43;;;;;;;8.48;7.32;;;;;;;25.22;87.45;98340.34;5083964;28;20567;-77
2023/09/10 09:30:11;;;;;;;8.00;6.80;;;;;;;25.49;84.04;98340.31;5090454;28;20245;-77
2023/09/10 09:32:39;;;;;;;10.30;6.72;;;;;;;25.63;84.17;98327.44;5089379;28;20211;-77
2023/09/10 09:35:06;;;;;;;11.75;7.25;;;;;;;25.66;82.35;98329.56;5081765;28;20615;-77
2023/09/10 09:37:33;;;;;;;8.00;7.25;;;;;;;25.73;82.61;98328.00;5083625;28;20592;-77
2023/09/10 09:40:00;;;;;;;8.25;7.03;;;;;;;25.79;76.33;98332.22;5082923;28;20197;-77
2023/09/10 09:42:28;;;;;;;7.72;6.82;;;;;;;25.54;80.48;98323.84;5081002;28;20219;-77
2023/09/10 09:44:55;;;;;;;9.38;7.45;;;;;;;25.96;78.75;98316.00;5082938;28;20200;-77
2023/09/10 09:47:21;;;;;;;8.77;6.55;;;;;;;26.27;70.27;98316.00;5081969;28;20227;-77
2023/09/10 09:49:49;;;;;;;9.35;6.93;;;;;;;26.37;72.28;98315.75;5083105;28;20200;-76
2023/09/10 09:52:19;;;;;;;7.40;6.70;;;;;;;26.33;73.08;98312.06;5084175;28;20319;-78
2023/09/10 09:54:49;;;;;;;9.07;6.78;;;;;;;26.57;70.70;98315.22;5081542;28;20227;-76
2023/09/10 09:57:16;;;;;;;7.85;7.05;;;;;;;26.27;72.04;98313.28;5081170;28;20226;-76
2023/09/10 09:59:44;;;;;;;6.60;6.05;;;;;;;26.47;68.52;98313.53;5081553;28;20197;-76
2023/09/10 10:02:18;;;;;;;8.40;6.13;;;;;;;26.39;64.53;98308.88;5082612;28;20216;-78
2023/09/10 10:04:45;;;;;;;7.20;6.50;;;;;;;26.33;69.84;98310.09;5081667;28;20192;-76
2023/09/10 10:07:15;;;;;;;7.07;6.38;;;;;;;26.65;69.98;98309.00;5081764;28;20226;-76
2023/09/10 10:09:42;;;;;;;7.50;6.30;;;;;;;26.42;70.01;98304.72;5082878;28;20602;-76
2023/09/10 10:12:09;;;;;;;7.78;6.78;;;;;;;26.70;69.30;98300.66;5082503;28;20195;-77
2023/09/10 10:14:36;;;;;;;8.35;6.28;;;;;;;26.80;65.93;98297.63;5082604;28;20207;-77
2023/09/10 10:17:05;;;;;;;8.77;7.38;;;;;;;26.61;68.99;98292.47;5080668;28;20196;-77
2023/09/10 10:19:34;;;;;;;8.18;7.28;;;;;;;26.74;68.58;98298.91;5083159;28;20612;-77
2023/09/10 10:22:04;;;;;;;7.60;6.50;;;;;;;27.32;64.12;98293.88;5083193;28;20219;-77
2023/09/10 10:24:32;;;;;;;9.80;7.20;;;;;;;26.84;64.42;98291.25;5082808;28;20200;-77
2023/09/10 10:27:01;;;;;;;10.25;6.70;;;;;;;26.76;66.77;98291.19;5080426;28;20200;-77
2023/09/10 10:29:28;;;;;;;7.55;6.68;;;;;;;27.16;66.44;98284.53;5081799;28;20200;-76
2023/09/10 10:32:16;;;;;;;9.25;7.35;;;;;;;26.79;65.86;98285.94;5082917;28;20203;-76
2023/09/10 10:34:53;;;;;;;7.80;6.90;;;;;;;26.49;66.90;98281.31;5082653;28;20184;-76
2023/09/10 10:37:30;;;;;;;9.15;7.07;;;;;;;26.86;67.56;98282.72;5082581;28;20230;-76
2023/09/10 10:40:12;;;;;;;9.23;7.20;;;;;;;27.33;67.50;98270.91;5067548;28;20225;-77
2023/09/10 10:42:56;;;;;;;9.55;6.72;;;;;;;27.26;68.97;98270.56;5084157;28;20687;-77
2023/09/10 10:45:26;;;;;;;7.95;7.07;;;;;;;27.59;67.60;98276.34;5085090;28;20603;-77
2023/09/10 10:47:54;;;;;;;7.75;7.05;;;;;;;27.47;69.04;98262.53;5084526;28;20220;-77
2023/09/10 10:50:28;;;;;;;8.70;7.78;;;;;;;27.79;67.17;98265.53;5083260;28;20200;-77
2023/09/10 10:53:05;;;;;;;11.45;7.22;;;;;;;27.83;66.44;98271.19;5083616;28;20200;-77
2023/09/10 10:55:33;;;;;;;10.65;8.30;;;;;;;26.84;67.15;98253.03;5084303;28;20616;-77
2023/09/10 10:58:00;;;;;;;9.65;7.40;;;;;;;27.19;68.16;98256.63;5085712;28;20720;-76
2023/09/10 11:00:28;;;;;;;7.53;6.53;;;;;;;27.37;65.91;98260.97;5085616;28;20201;-76
2023/09/10 11:03:15;;;;;;;8.82;6.75;;;;;;;27.23;68.47;98256.78;5084023;28;20204;-76
2023/09/10 11:05:54;;;;;;;11.18;7.22;;;;;;;27.50;65.39;98250.97;5085029;28;20204;-76
2023/09/10 11:08:35;;;;;;;9.75;7.03;;;;;;;27.70;64.71;98258.47;5090695;28;20223;-77
2023/09/10 11:11:03;;;;;;;9.68;8.38;;;;;;;27.28;65.33;98249.25;5084816;28;20420;-77
2023/09/10 11:13:30;;;;;;;11.77;7.25;;;;;;;27.23;63.81;98252.13;5085605;28;20192;-77
2023/09/10 11:16:05;;;;;;;8.27;7.47;;;;;;;27.23;63.51;98254.03;5086024;28;20205;-77
2023/09/10 11:18:38;;;;;;;9.75;7.07;;;;;;;27.36;63.92;98256.63;5085919;28;20232;-77